sensor_id;sensor_type;location;lat;lon;timestamp;P1;durP1;ratioP1;P2;durP2;ratioP2
27357;SDS011;14831;50.474;7.616;2023-08-24T00:04:17;1.9;;;1.8;;
27357;SDS011;14831;50.474;7.616;2023-08-24T00:09:17;1.9;;;1.8;;
27357;SDS011;14831;50.474;7.616;2023-08-24T00:14:17;1.9;;;1.8;;
27357;SDS011;14831;50.474;7.616;2023-08-24T00:19:17;1.9;;;1.8;;
27357;SDS011;14831;50.474;7.616;2023-08-24T00:24:16;1.9;;;1.8;;
27357;SDS011;14831;50.474;7.616;2023-08-24T00:29:17;1.9;;;1.8;;
27357;SDS011;14831;50.474;7.616;2023-08-24T00:34:17;2.4;;;2.2;;
27357;SDS011;14831;50.474;7.616;2023-08-24T00:39:17;2.4;;;2.2;;
27357;SDS011;14831;50.474;7.616;2023-08-24T00:44:17;2.4;;;2.2;;
27357;SDS011;14831;50.474;7.616;2023-08-24T00:49:17;2.4;;;2.2;;
27357;SDS011;14831;50.474;7.616;2023-08-24T00:54:17;2.4;;;2.2;;
27357;SDS011;14831;50.474;7.616;2023-08-24T00:59:17;2.4;;;2.2;;
27357;SDS011;14831;50.474;7.616;2023-08-24T01:04:17;2.0;;;1.8;;
27357;SDS011;14831;50.474;7.616;2023-08-24T01:09:17;2.0;;;1.8;;
27357;SDS011;14831;50.474;7.616;2023-08-24T01:16:27;2.0;;;1.8;;
27357;SDS011;14831;50.474;7.616;2023-08-24T01:19:27;2.0;;;1.8;;
27357;SDS011;14831;50.474;7.616;2023-08-24T01:24:21;2.0;;;1.8;;
27357;SDS011;14831;50.474;7.616;2023-08-24T01:29:17;2.0;;;1.8;;
27357;SDS011;14831;50.474;7.616;2023-08-24T01:34:17;2.1;;;2.0;;
27357;SDS011;14831;50.474;7.616;2023-08-24T01:39:28;2.1;;;2.0;;
27357;SDS011;14831;50.474;7.616;2023-08-24T01:44:20;2.1;;;2.0;;
27357;SDS011;14831;50.474;7.616;2023-08-24T01:49:17;2.1;;;2.0;;
27357;SDS011;14831;50.474;7.616;2023-08-24T01:54:17;2.1;;;2.0;;
27357;SDS011;14831;50.474;7.616;2023-08-24T01:59:17;2.1;;;2.0;;
27357;SDS011;14831;50.474;7.616;2023-08-24T02:04:17;2.0;;;1.9;;
27357;SDS011;14831;50.474;7.616;2023-08-24T02:09:17;2.0;;;1.9;;
27357;SDS011;14831;50.474;7.616;2023-08-24T02:14:17;2.0;;;1.9;;
27357;SDS011;14831;50.474;7.616;2023-08-24T02:19:17;2.0;;;1.9;;
27357;SDS011;14831;50.474;7.616;2023-08-24T02:24:17;2.0;;;1.9;;
27357;SDS011;14831;50.474;7.616;2023-08-24T02:29:17;2.0;;;1.9;;
27357;SDS011;14831;50.474;7.616;2023-08-24T02:34:17;2.5;;;2.0;;
27357;SDS011;14831;50.474;7.616;2023-08-24T02:39:17;2.5;;;2.0;;
27357;SDS011;14831;50.474;7.616;2023-08-24T02:44:17;2.5;;;2.0;;
27357;SDS011;14831;50.474;7.616;2023-08-24T02:49:17;2.5;;;2.0;;
27357;SDS011;14831;50.474;7.616;2023-08-24T02:54:17;2.5;;;2.0;;
27357;SDS011;14831;50.474;7.616;2023-08-24T02:59:17;2.5;;;2.0;;
27357;SDS011;14831;50.474;7.616;2023-08-24T03:04:17;2.4;;;2.2;;
27357;SDS011;14831;50.474;7.616;2023-08-24T03:09:17;2.4;;;2.2;;
27357;SDS011;14831;50.474;7.616;2023-08-24T03:14:17;2.4;;;2.2;;
27357;SDS011;14831;50.474;7.616;2023-08-24T03:19:17;2.4;;;2.2;;
27357;SDS011;14831;50.474;7.616;2023-08-24T03:24:17;2.4;;;2.2;;
27357;SDS011;14831;50.474;7.616;2023-08-24T03:29:17;2.4;;;2.2;;
27357;SDS011;14831;50.474;7.616;2023-08-24T03:34:17;2.9;;;2.6;;
27357;SDS011;14831;50.474;7.616;2023-08-24T03:39:17;2.9;;;2.6;;
27357;SDS011;14831;50.474;7.616;2023-08-24T03:44:17;2.9;;;2.6;;
27357;SDS011;14831;50.474;7.616;2023-08-24T03:49:17;2.9;;;2.6;;
27357;SDS011;14831;50.474;7.616;2023-08-24T03:54:17;2.9;;;2.6;;
27357;SDS011;14831;50.474;7.616;2023-08-24T03:59:17;2.9;;;2.6;;
27357;SDS011;14831;50.474;7.616;2023-08-24T04:04:17;2.5;;;2.3;;
27357;SDS011;14831;50.474;7.616;2023-08-24T04:09:17;2.5;;;2.3;;
27357;SDS011;14831;50.474;7.616;2023-08-24T04:14:17;2.5;;;2.3;;
27357;SDS011;14831;50.474;7.616;2023-08-24T04:19:17;2.5;;;2.3;;
27357;SDS011;14831;50.474;7.616;2023-08-24T04:24:17;2.5;;;2.3;;
27357;SDS011;14831;50.474;7.616;2023-08-24T04:29:17;2.5;;;2.3;;
27357;SDS011;14831;50.474;7.616;2023-08-24T04:34:17;2.8;;;2.5;;
27357;SDS011;14831;50.474;7.616;2023-08-24T04:39:17;2.8;;;2.5;;
27357;SDS011;14831;50.474;7.616;2023-08-24T04:44:17;2.8;;;2.5;;
27357;SDS011;14831;50.474;7.616;2023-08-24T04:49:16;2.8;;;2.5;;
27357;SDS011;14831;50.474;7.616;2023-08-24T04:54:17;2.8;;;2.5;;
27357;SDS011;14831;50.474;7.616;2023-08-24T04:59:17;2.8;;;2.5;;
27357;SDS011;14831;50.474;7.616;2023-08-24T05:04:17;3.2;;;2.8;;
27357;SDS011;14831;50.474;7.616;2023-08-24T05:09:16;3.2;;;2.8;;
27357;SDS011;14831;50.474;7.616;2023-08-24T05:14:17;3.2;;;2.8;;
27357;SDS011;14831;50.474;7.616;2023-08-24T05:19:16;3.2;;;2.8;;
27357;SDS011;14831;50.474;7.616;2023-08-24T05:24:16;3.2;;;2.8;;
27357;SDS011;14831;50.474;7.616;2023-08-24T05:29:17;3.2;;;2.8;;
27357;SDS011;14831;50.474;7.616;2023-08-24T05:34:17;3.8;;;3.5;;
27357;SDS011;14831;50.474;7.616;2023-08-24T05:39:17;3.8;;;3.5;;
27357;SDS011;14831;50.474;7.616;2023-08-24T05:44:17;3.8;;;3.5;;
27357;SDS011;14831;50.474;7.616;2023-08-24T05:49:17;3.8;;;3.5;;
27357;SDS011;14831;50.474;7.616;2023-08-24T05:54:17;3.8;;;3.5;;
27357;SDS011;14831;50.474;7.616;2023-08-24T05:59:17;3.8;;;3.5;;
27357;SDS011;14831;50.474;7.616;2023-08-24T06:04:17;6.0;;;4.1;;
27357;SDS011;14831;50.474;7.616;2023-08-24T06:09:17;6.0;;;4.1;;
27357;SDS011;14831;50.474;7.616;2023-08-24T06:14:17;6.0;;;4.1;;
27357;SDS011;14831;50.474;7.616;2023-08-24T06:19:17;6.0;;;4.1;;
27357;SDS011;14831;50.474;7.616;2023-08-24T06:24:17;6.0;;;4.1;;
27357;SDS011;14831;50.474;7.616;2023-08-24T06:29:17;6.0;;;4.1;;
27357;SDS011;14831;50.474;7.616;2023-08-24T06:34:17;8.1;;;4.3;;
27357;SDS011;14831;50.474;7.616;2023-08-24T06:39:16;8.1;;;4.3;;
27357;SDS011;14831;50.474;7.616;2023-08-24T06:44:17;8.1;;;4.3;;
27357;SDS011;14831;50.474;7.616;2023-08-24T06:49:17;8.1;;;4.3;;
27357;SDS011;14831;50.474;7.616;2023-08-24T06:54:17;8.1;;;4.3;;
27357;SDS011;14831;50.474;7.616;2023-08-24T06:59:17;8.1;;;4.3;;
27357;SDS011;14831;50.474;7.616;2023-08-24T07:04:17;6.2;;;4.2;;
27357;SDS011;14831;50.474;7.616;2023-08-24T07:09:18;6.2;;;4.2;;
27357;SDS011;14831;50.474;7.616;2023-08-24T07:14:17;6.2;;;4.2;;
27357;SDS011;14831;50.474;7.616;2023-08-24T07:19:17;6.2;;;4.2;;
27357;SDS011;14831;50.474;7.616;2023-08-24T07:24:17;6.2;;;4.2;;
27357;SDS011;14831;50.474;7.616;2023-08-24T07:29:17;6.2;;;4.2;;
27357;SDS011;14831;50.474;7.616;2023-08-24T07:34:17;5.5;;;4.3;;
27357;SDS011;14831;50.474;7.616;2023-08-24T07:40:58;5.5;;;4.3;;
27357;SDS011;14831;50.474;7.616;2023-08-24T07:45:58;5.5;;;4.3;;
27357;SDS011;14831;50.474;7.616;2023-08-24T07:50:57;5.5;;;4.3;;
27357;SDS011;14831;50.474;7.616;2023-08-24T07:55:58;5.5;;;4.3;;
27357;SDS011;14831;50.474;7.616;2023-08-24T08:00:59;5.2;;;4.4;;
27357;SDS011;14831;50.474;7.616;2023-08-24T08:05:58;5.2;;;4.4;;
27357;SDS011;14831;50.474;7.616;2023-08-24T08:10:58;5.2;;;4.4;;
27357;SDS011;14831;50.474;7.616;2023-08-24T08:16:00;5.2;;;4.4;;
27357;SDS011;14831;50.474;7.616;2023-08-24T08:20:58;5.2;;;4.4;;
27357;SDS011;14831;50.474;7.616;2023-08-24T08:25:58;5.2;;;4.4;;
27357;SDS011;14831;50.474;7.616;2023-08-24T08:30:57;5.6;;;4.8;;
27357;SDS011;14831;50.474;7.616;2023-08-24T08:35:58;5.6;;;4.8;;
27357;SDS011;14831;50.474;7.616;2023-08-24T08:41:02;5.6;;;4.8;;
27357;SDS011;14831;50.474;7.616;2023-08-24T08:45:59;5.6;;;4.8;;
27357;SDS011;14831;50.474;7.616;2023-08-24T08:50:58;5.6;;;4.8;;
27357;SDS011;14831;50.474;7.616;2023-08-24T08:55:58;5.6;;;4.8;;
27357;SDS011;14831;50.474;7.616;2023-08-24T09:00:58;7.1;;;5.1;;
27357;SDS011;14831;50.474;7.616;2023-08-24T09:05:58;7.1;;;5.1;;
27357;SDS011;14831;50.474;7.616;2023-08-24T09:10:58;7.1;;;5.1;;
27357;SDS011;14831;50.474;7.616;2023-08-24T09:16:03;7.1;;;5.1;;
27357;SDS011;14831;50.474;7.616;2023-08-24T09:20:57;7.1;;;5.1;;
27357;SDS011;14831;50.474;7.616;2023-08-24T09:25:58;7.1;;;5.1;;
27357;SDS011;14831;50.474;7.616;2023-08-24T09:31:00;5.1;;;4.6;;
27357;SDS011;14831;50.474;7.616;2023-08-24T09:35:58;5.1;;;4.6;;
27357;SDS011;14831;50.474;7.616;2023-08-24T09:40:57;5.1;;;4.6;;
27357;SDS011;14831;50.474;7.616;2023-08-24T09:45:57;5.1;;;4.6;;
27357;SDS011;14831;50.474;7.616;2023-08-24T09:51:01;5.1;;;4.6;;
27357;SDS011;14831;50.474;7.616;2023-08-24T09:56:00;5.1;;;4.6;;
27357;SDS011;14831;50.474;7.616;2023-08-24T10:00:58;4.5;;;4.1;;
27357;SDS011;14831;50.474;7.616;2023-08-24T10:05:58;4.5;;;4.1;;
27357;SDS011;14831;50.474;7.616;2023-08-24T10:10:58;4.5;;;4.1;;
27357;SDS011;14831;50.474;7.616;2023-08-24T10:15:59;4.5;;;4.1;;
27357;SDS011;14831;50.474;7.616;2023-08-24T10:20:58;4.5;;;4.1;;
27357;SDS011;14831;50.474;7.616;2023-08-24T10:25:59;4.5;;;4.1;;
27357;SDS011;14831;50.474;7.616;2023-08-24T10:30:59;4.4;;;3.8;;
27357;SDS011;14831;50.474;7.616;2023-08-24T10:35:58;4.4;;;3.8;;
27357;SDS011;14831;50.474;7.616;2023-08-24T10:41:02;4.4;;;3.8;;
27357;SDS011;14831;50.474;7.616;2023-08-24T10:45:59;4.4;;;3.8;;
27357;SDS011;14831;50.474;7.616;2023-08-24T10:51:29;4.4;;;3.8;;
27357;SDS011;14831;50.474;7.616;2023-08-24T10:56:10;4.4;;;3.8;;
27357;SDS011;14831;50.474;7.616;2023-08-24T11:01:00;4.1;;;3.7;;
27357;SDS011;14831;50.474;7.616;2023-08-24T11:05:57;4.1;;;3.7;;
27357;SDS011;14831;50.474;7.616;2023-08-24T11:10:57;4.1;;;3.7;;
27357;SDS011;14831;50.474;7.616;2023-08-24T11:15:58;4.1;;;3.7;;
27357;SDS011;14831;50.474;7.616;2023-08-24T11:21:00;4.1;;;3.7;;
27357;SDS011;14831;50.474;7.616;2023-08-24T11:25:58;4.1;;;3.7;;
27357;SDS011;14831;50.474;7.616;2023-08-24T11:30:58;4.9;;;3.7;;
27357;SDS011;14831;50.474;7.616;2023-08-24T11:35:58;4.9;;;3.7;;
27357;SDS011;14831;50.474;7.616;2023-08-24T11:40:57;4.9;;;3.7;;
27357;SDS011;14831;50.474;7.616;2023-08-24T11:45:58;4.9;;;3.7;;
27357;SDS011;14831;50.474;7.616;2023-08-24T11:50:58;4.9;;;3.7;;
27357;SDS011;14831;50.474;7.616;2023-08-24T11:55:58;4.9;;;3.7;;
27357;SDS011;14831;50.474;7.616;2023-08-24T12:00:58;4.9;;;3.7;;
27357;SDS011;14831;50.474;7.616;2023-08-24T12:05:59;4.9;;;3.7;;
27357;SDS011;14831;50.474;7.616;2023-08-24T12:10:57;4.9;;;3.7;;
27357;SDS011;14831;50.474;7.616;2023-08-24T12:15:57;4.9;;;3.7;;
27357;SDS011;14831;50.474;7.616;2023-08-24T12:21:00;4.9;;;3.7;;
27357;SDS011;14831;50.474;7.616;2023-08-24T12:25:57;4.9;;;3.7;;
27357;SDS011;14831;50.474;7.616;2023-08-24T12:30:57;5.9;;;3.6;;
27357;SDS011;14831;50.474;7.616;2023-08-24T12:35:58;5.9;;;3.6;;
27357;SDS011;14831;50.474;7.616;2023-08-24T12:40:58;5.9;;;3.6;;
27357;SDS011;14831;50.474;7.616;2023-08-24T12:45:57;5.9;;;3.6;;
27357;SDS011;14831;50.474;7.616;2023-08-24T12:50:57;5.9;;;3.6;;
27357;SDS011;14831;50.474;7.616;2023-08-24T12:55:57;5.9;;;3.6;;
27357;SDS011;14831;50.474;7.616;2023-08-24T13:00:57;4.9;;;3.7;;
27357;SDS011;14831;50.474;7.616;2023-08-24T13:05:58;4.9;;;3.7;;
27357;SDS011;14831;50.474;7.616;2023-08-24T13:10:57;4.9;;;3.7;;
27357;SDS011;14831;50.474;7.616;2023-08-24T13:15:57;4.9;;;3.7;;
27357;SDS011;14831;50.474;7.616;2023-08-24T13:20:57;4.9;;;3.7;;
27357;SDS011;14831;50.474;7.616;2023-08-24T13:25:58;4.9;;;3.7;;
27357;SDS011;14831;50.474;7.616;2023-08-24T13:30:57;5.4;;;4.5;;
27357;SDS011;14831;50.474;7.616;2023-08-24T13:35:58;5.4;;;4.5;;
27357;SDS011;14831;50.474;7.616;2023-08-24T13:40:57;5.4;;;4.5;;
27357;SDS011;14831;50.474;7.616;2023-08-24T13:45:58;5.4;;;4.5;;
27357;SDS011;14831;50.474;7.616;2023-08-24T13:50:57;5.4;;;4.5;;
27357;SDS011;14831;50.474;7.616;2023-08-24T13:55:58;5.4;;;4.5;;
27357;SDS011;14831;50.474;7.616;2023-08-24T14:00:58;6.1;;;4.7;;
27357;SDS011;14831;50.474;7.616;2023-08-24T14:05:58;6.1;;;4.7;;
27357;SDS011;14831;50.474;7.616;2023-08-24T14:10:58;6.1;;;4.7;;
27357;SDS011;14831;50.474;7.616;2023-08-24T14:15:57;6.1;;;4.7;;
27357;SDS011;14831;50.474;7.616;2023-08-24T14:20:57;6.1;;;4.7;;
27357;SDS011;14831;50.474;7.616;2023-08-24T14:25:58;6.1;;;4.7;;
27357;SDS011;14831;50.474;7.616;2023-08-24T14:30:57;7.9;;;5.2;;
27357;SDS011;14831;50.474;7.616;2023-08-24T14:35:58;7.9;;;5.2;;
27357;SDS011;14831;50.474;7.616;2023-08-24T14:40:58;7.9;;;5.2;;
27357;SDS011;14831;50.474;7.616;2023-08-24T14:45:57;7.9;;;5.2;;
27357;SDS011;14831;50.474;7.616;2023-08-24T14:50:58;7.9;;;5.2;;
27357;SDS011;14831;50.474;7.616;2023-08-24T14:55:58;7.9;;;5.2;;
27357;SDS011;14831;50.474;7.616;2023-08-24T15:00:58;8.9;;;6.4;;
27357;SDS011;14831;50.474;7.616;2023-08-24T15:05:59;8.9;;;6.4;;
27357;SDS011;14831;50.474;7.616;2023-08-24T15:10:59;8.9;;;6.4;;
27357;SDS011;14831;50.474;7.616;2023-08-24T15:15:58;8.9;;;6.4;;
27357;SDS011;14831;50.474;7.616;2023-08-24T15:20:58;8.9;;;6.4;;
27357;SDS011;14831;50.474;7.616;2023-08-24T15:26:00;8.9;;;6.4;;
27357;SDS011;14831;50.474;7.616;2023-08-24T15:30:58;10.5;;;7.8;;
27357;SDS011;14831;50.474;7.616;2023-08-24T15:35:58;10.5;;;7.8;;
27357;SDS011;14831;50.474;7.616;2023-08-24T15:40:57;10.5;;;7.8;;
27357;SDS011;14831;50.474;7.616;2023-08-24T15:45:58;10.5;;;7.8;;
27357;SDS011;14831;50.474;7.616;2023-08-24T15:50:58;10.5;;;7.8;;
27357;SDS011;14831;50.474;7.616;2023-08-24T15:55:57;10.5;;;7.8;;
27357;SDS011;14831;50.474;7.616;2023-08-24T16:00:57;10.7;;;6.7;;
27357;SDS011;14831;50.474;7.616;2023-08-24T16:05:58;10.7;;;6.7;;
27357;SDS011;14831;50.474;7.616;2023-08-24T16:10:58;10.7;;;6.7;;
27357;SDS011;14831;50.474;7.616;2023-08-24T16:15:57;10.7;;;6.7;;
27357;SDS011;14831;50.474;7.616;2023-08-24T16:20:58;10.7;;;6.7;;
27357;SDS011;14831;50.474;7.616;2023-08-24T16:25:57;10.7;;;6.7;;
27357;SDS011;14831;50.474;7.616;2023-08-24T16:30:57;9.9;;;5.9;;
27357;SDS011;14831;50.474;7.616;2023-08-24T16:35:58;9.9;;;5.9;;
27357;SDS011;14831;50.474;7.616;2023-08-24T16:40:57;9.9;;;5.9;;
27357;SDS011;14831;50.474;7.616;2023-08-24T16:45:58;9.9;;;5.9;;
27357;SDS011;14831;50.474;7.616;2023-08-24T16:50:57;9.9;;;5.9;;
27357;SDS011;14831;50.474;7.616;2023-08-24T16:55:57;9.9;;;5.9;;
27357;SDS011;14831;50.474;7.616;2023-08-24T17:01:04;7.3;;;5.3;;
27357;SDS011;14831;50.474;7.616;2023-08-24T17:05:58;7.3;;;5.3;;
27357;SDS011;14831;50.474;7.616;2023-08-24T17:10:57;7.3;;;5.3;;
27357;SDS011;14831;50.474;7.616;2023-08-24T17:15:57;7.3;;;5.3;;
27357;SDS011;14831;50.474;7.616;2023-08-24T17:20:57;7.3;;;5.3;;
27357;SDS011;14831;50.474;7.616;2023-08-24T17:25:57;7.3;;;5.3;;
27357;SDS011;14831;50.474;7.616;2023-08-24T17:30:57;6.9;;;4.8;;
27357;SDS011;14831;50.474;7.616;2023-08-24T17:35:57;6.9;;;4.8;;
27357;SDS011;14831;50.474;7.616;2023-08-24T17:41:01;6.9;;;4.8;;
27357;SDS011;14831;50.474;7.616;2023-08-24T17:45:57;6.9;;;4.8;;
27357;SDS011;14831;50.474;7.616;2023-08-24T17:50:59;6.9;;;4.8;;
27357;SDS011;14831;50.474;7.616;2023-08-24T17:55:58;6.9;;;4.8;;
27357;SDS011;14831;50.474;7.616;2023-08-24T18:00:58;8.7;;;4.9;;
27357;SDS011;14831;50.474;7.616;2023-08-24T18:05:57;8.7;;;4.9;;
27357;SDS011;14831;50.474;7.616;2023-08-24T18:11:01;8.7;;;4.9;;
27357;SDS011;14831;50.474;7.616;2023-08-24T18:15:58;8.7;;;4.9;;
27357;SDS011;14831;50.474;7.616;2023-08-24T18:21:01;8.7;;;4.9;;
27357;SDS011;14831;50.474;7.616;2023-08-24T18:25:58;8.7;;;4.9;;
27357;SDS011;14831;50.474;7.616;2023-08-24T18:30:58;6.6;;;4.2;;
27357;SDS011;14831;50.474;7.616;2023-08-24T18:35:58;6.6;;;4.2;;
27357;SDS011;14831;50.474;7.616;2023-08-24T18:40:58;6.6;;;4.2;;
27357;SDS011;14831;50.474;7.616;2023-08-24T18:45:59;6.6;;;4.2;;
27357;SDS011;14831;50.474;7.616;2023-08-24T18:50:58;6.6;;;4.2;;
27357;SDS011;14831;50.474;7.616;2023-08-24T18:55:58;6.6;;;4.2;;
27357;SDS011;14831;50.474;7.616;2023-08-24T19:01:00;6.7;;;3.9;;
27357;SDS011;14831;50.474;7.616;2023-08-24T19:05:58;6.7;;;3.9;;
27357;SDS011;14831;50.474;7.616;2023-08-24T19:10:58;6.7;;;3.9;;
27357;SDS011;14831;50.474;7.616;2023-08-24T19:15:59;6.7;;;3.9;;
27357;SDS011;14831;50.474;7.616;2023-08-24T19:20:57;6.7;;;3.9;;
27357;SDS011;14831;50.474;7.616;2023-08-24T19:25:57;6.7;;;3.9;;
27357;SDS011;14831;50.474;7.616;2023-08-24T19:30:57;5.9;;;3.6;;
27357;SDS011;14831;50.474;7.616;2023-08-24T19:35:58;5.9;;;3.6;;
27357;SDS011;14831;50.474;7.616;2023-08-24T19:41:00;5.9;;;3.6;;
27357;SDS011;14831;50.474;7.616;2023-08-24T19:45:58;5.9;;;3.6;;
27357;SDS011;14831;50.474;7.616;2023-08-24T19:50:58;5.9;;;3.6;;
27357;SDS011;14831;50.474;7.616;2023-08-24T19:55:57;5.9;;;3.6;;
27357;SDS011;14831;50.474;7.616;2023-08-24T20:00:57;5.9;;;3.3;;
27357;SDS011;14831;50.474;7.616;2023-08-24T20:05:57;5.9;;;3.3;;
27357;SDS011;14831;50.474;7.616;2023-08-24T20:10:57;5.9;;;3.3;;
27357;SDS011;14831;50.474;7.616;2023-08-24T20:16:02;5.9;;;3.3;;
27357;SDS011;14831;50.474;7.616;2023-08-24T20:20:57;5.9;;;3.3;;
27357;SDS011;14831;50.474;7.616;2023-08-24T20:25:58;5.9;;;3.3;;
27357;SDS011;14831;50.474;7.616;2023-08-24T20:30:58;4.4;;;3.5;;
27357;SDS011;14831;50.474;7.616;2023-08-24T20:35:58;4.4;;;3.5;;
27357;SDS011;14831;50.474;7.616;2023-08-24T20:41:00;4.4;;;3.5;;
27357;SDS011;14831;50.474;7.616;2023-08-24T20:45:58;4.4;;;3.5;;
27357;SDS011;14831;50.474;7.616;2023-08-24T20:50:57;4.4;;;3.5;;
27357;SDS011;14831;50.474;7.616;2023-08-24T20:55:57;4.4;;;3.5;;
27357;SDS011;14831;50.474;7.616;2023-08-24T21:01:03;4.6;;;3.4;;
27357;SDS011;14831;50.474;7.616;2023-08-24T21:05:58;4.6;;;3.4;;
27357;SDS011;14831;50.474;7.616;2023-08-24T21:10:58;4.6;;;3.4;;
27357;SDS011;14831;50.474;7.616;2023-08-24T21:15:58;4.6;;;3.4;;
27357;SDS011;14831;50.474;7.616;2023-08-24T21:20:58;4.6;;;3.4;;
27357;SDS011;14831;50.474;7.616;2023-08-24T21:25:58;4.6;;;3.4;;
27357;SDS011;14831;50.474;7.616;2023-08-24T21:30:59;5.0;;;3.5;;
27357;SDS011;14831;50.474;7.616;2023-08-24T21:35:58;5.0;;;3.5;;
27357;SDS011;14831;50.474;7.616;2023-08-24T21:41:00;5.0;;;3.5;;
27357;SDS011;14831;50.474;7.616;2023-08-24T21:45:59;5.0;;;3.5;;
27357;SDS011;14831;50.474;7.616;2023-08-24T21:50:58;5.0;;;3.5;;
27357;SDS011;14831;50.474;7.616;2023-08-24T21:55:57;5.0;;;3.5;;
27357;SDS011;14831;50.474;7.616;2023-08-24T22:00:59;5.8;;;3.5;;
27357;SDS011;14831;50.474;7.616;2023-08-24T22:05:58;5.8;;;3.5;;
27357;SDS011;14831;50.474;7.616;2023-08-24T22:10:57;5.8;;;3.5;;
27357;SDS011;14831;50.474;7.616;2023-08-24T22:15:58;5.8;;;3.5;;
27357;SDS011;14831;50.474;7.616;2023-08-24T22:20:58;5.8;;;3.5;;
27357;SDS011;14831;50.474;7.616;2023-08-24T22:25:58;5.8;;;3.5;;
27357;SDS011;14831;50.474;7.616;2023-08-24T22:30:57;4.2;;;3.5;;
27357;SDS011;14831;50.474;7.616;2023-08-24T22:35:57;4.2;;;3.5;;
27357;SDS011;14831;50.474;7.616;2023-08-24T22:40:58;4.2;;;3.5;;
27357;SDS011;14831;50.474;7.616;2023-08-24T22:45:57;4.2;;;3.5;;
27357;SDS011;14831;50.474;7.616;2023-08-24T22:50:57;4.2;;;3.5;;
27357;SDS011;14831;50.474;7.616;2023-08-24T22:55:57;4.2;;;3.5;;
27357;SDS011;14831;50.474;7.616;2023-08-24T23:00:58;4.5;;;3.9;;
27357;SDS011;14831;50.474;7.616;2023-08-24T23:05:57;4.5;;;3.9;;
27357;SDS011;14831;50.474;7.616;2023-08-24T23:10:58;4.5;;;3.9;;
27357;SDS011;14831;50.474;7.616;2023-08-24T23:15:58;4.5;;;3.9;;
27357;SDS011;14831;50.474;7.616;2023-08-24T23:20:58;4.5;;;3.9;;
27357;SDS011;14831;50.474;7.616;2023-08-24T23:25:58;4.5;;;3.9;;
27357;SDS011;14831;50.474;7.616;2023-08-24T23:30:59;6.0;;;4.2;;
27357;SDS011;14831;50.474;7.616;2023-08-24T23:35:57;6.0;;;4.2;;
27357;SDS011;14831;50.474;7.616;2023-08-24T23:40:58;6.0;;;4.2;;
27357;SDS011;14831;50.474;7.616;2023-08-24T23:45:57;6.0;;;4.2;;
27357;SDS011;14831;50.474;7.616;2023-08-24T23:50:58;6.0;;;4.2;;
27357;SDS011;14831;50.474;7.616;2023-08-24T23:55:57;6.0;;;4.2;;
